Time;durP1;ratioP1;P1;durP2;ratioP2;P2;SDS_P1;SDS_P2;PMS_P1;PMS_P2;Temp;Humidity;BMP_temperature;BMP_pressure;BME280_temperature;BME280_humidity;BME280_pressure;Samples;Min_cycle;Max_cycle;Signal;HPM_P1;HPM_P2
2022/07/19 00:00:16;;;;;;;3.60;2.53;;;;;;;;;;6197310;23;20168;-89
2022/07/19 00:03:21;;;;;;;4.90;2.97;;;;;;;;;;6197396;23;20159;-90
2022/07/19 00:06:28;;;;;;;5.82;2.50;;;;;;;;;;6198219;23;20155;-89
2022/07/19 00:09:33;;;;;;;5.53;2.97;;;;;;;;;;6197228;23;20190;-89
2022/07/19 00:12:39;;;;;;;6.22;2.90;;;;;;;;;;6197780;23;20219;-89
2022/07/19 00:15:44;;;;;;;5.72;2.70;;;;;;;;;;6199608;23;20163;-90
2022/07/19 00:18:49;;;;;;;4.85;2.63;;;;;;;;;;6198475;23;20678;-89
2022/07/19 00:21:56;;;;;;;8.48;2.80;;;;;;;;;;6198872;23;20507;-89
2022/07/19 00:25:01;;;;;;;6.47;2.92;;;;;;;;;;6199004;23;20167;-89
2022/07/19 00:28:07;;;;;;;5.22;2.90;;;;;;;;;;6198597;23;20172;-88
2022/07/19 00:31:11;;;;;;;7.05;3.22;;;;;;;;;;6198311;23;20267;-88
2022/07/19 00:34:18;;;;;;;9.25;2.92;;;;;;;;;;6180754;23;20188;-89
2022/07/19 00:37:28;;;;;;;9.43;3.20;;;;;;;;;;6167153;23;20197;-88
2022/07/19 00:40:33;;;;;;;6.20;3.10;;;;;;;;;;6168320;23;20164;-88
2022/07/19 00:43:41;;;;;;;6.43;3.28;;;;;;;;;;6167422;23;20176;-89
2022/07/19 00:46:46;;;;;;;5.88;3.28;;;;;;;;;;6166507;23;20251;-89
2022/07/19 00:49:51;;;;;;;6.38;2.88;;;;;;;;;;6166400;23;20169;-90
2022/07/19 00:53:00;;;;;;;5.75;2.90;;;;;;;;;;6166991;23;20624;-90
2022/07/19 00:56:06;;;;;;;6.65;3.13;;;;;;;;;;6166318;23;20253;-87
2022/07/19 00:59:12;;;;;;;5.72;3.05;;;;;;;;;;6165222;23;20233;-89
2022/07/19 01:02:18;;;;;;;5.20;2.72;;;;;;;;;;6173525;23;20193;-90
2022/07/19 01:05:24;;;;;;;7.60;3.20;;;;;;;;;;6169397;23;20185;-89
2022/07/19 01:08:30;;;;;;;5.13;2.85;;;;;;;;;;6170576;23;20185;-88
2022/07/19 01:11:35;;;;;;;5.28;2.83;;;;;;;;;;6170367;23;20173;-89
2022/07/19 01:14:41;;;;;;;6.00;3.15;;;;;;;;;;6167861;23;20196;-89
2022/07/19 01:17:46;;;;;;;5.18;3.00;;;;;;;;;;6167000;23;20204;-90
2022/07/19 01:20:52;;;;;;;11.10;2.83;;;;;;;;;;6168192;23;20239;-89
2022/07/19 01:23:58;;;;;;;6.22;3.00;;;;;;;;;;6168651;23;20616;-89
2022/07/19 01:27:05;;;;;;;6.00;2.92;;;;;;;;;;6168672;23;20597;-90
2022/07/19 01:30:14;;;;;;;4.68;3.25;;;;;;;;;;6167914;23;20168;-89
2022/07/19 01:33:19;;;;;;;11.73;2.92;;;;;;;;;;6178008;23;20246;-91
2022/07/19 01:36:23;;;;;;;7.38;3.42;;;;;;;;;;6212281;23;20150;-89
2022/07/19 01:39:34;;;;;;;5.60;3.25;;;;;;;;;;6213756;23;20170;-89
2022/07/19 01:42:39;;;;;;;5.10;3.25;;;;;;;;;;6213257;23;20167;-90
2022/07/19 01:45:45;;;;;;;7.03;3.28;;;;;;;;;;6211302;23;20232;-88
2022/07/19 01:48:50;;;;;;;9.38;4.00;;;;;;;;;;6211039;23;20171;-90
2022/07/19 01:51:55;;;;;;;6.22;3.35;;;;;;;;;;6212707;23;20171;-89
2022/07/19 01:55:02;;;;;;;5.60;3.30;;;;;;;;;;6211394;23;20610;-89
2022/07/19 01:58:07;;;;;;;5.43;3.17;;;;;;;;;;6211791;23;20190;-90
2022/07/19 02:01:12;;;;;;;5.40;2.97;;;;;;;;;;6211419;23;20294;-89
2022/07/19 02:04:17;;;;;;;6.00;3.55;;;;;;;;;;6210298;23;20249;-90
2022/07/19 02:07:23;;;;;;;7.38;3.35;;;;;;;;;;6211360;23;20167;-89
2022/07/19 02:10:29;;;;;;;7.95;3.55;;;;;;;;;;6210879;23;20677;-90
2022/07/19 02:13:34;;;;;;;3.90;3.03;;;;;;;;;;6211232;23;20507;-91
2022/07/19 02:16:40;;;;;;;8.23;4.05;;;;;;;;;;6210085;23;20302;-91
2022/07/19 02:19:45;;;;;;;5.68;3.30;;;;;;;;;;6208889;23;20328;-90
2022/07/19 02:22:50;;;;;;;5.20;3.45;;;;;;;;;;6209022;23;20171;-89
2022/07/19 02:25:57;;;;;;;5.57;3.30;;;;;;;;;;6208567;23;20170;-90
2022/07/19 02:29:03;;;;;;;5.97;3.30;;;;;;;;;;6182331;23;20550;-89
2022/07/19 02:32:08;;;;;;;8.32;3.20;;;;;;;;;;6207972;23;20163;-92
2022/07/19 02:35:14;;;;;;;8.25;3.38;;;;;;;;;;6206546;23;20267;-91
2022/07/19 02:38:19;;;;;;;5.05;3.20;;;;;;;;;;6207926;23;20207;-89
2022/07/19 02:41:26;;;;;;;6.03;2.92;;;;;;;;;;6208414;23;20163;-90
2022/07/19 02:44:31;;;;;;;5.43;3.28;;;;;;;;;;6206108;23;20187;-90
2022/07/19 02:47:38;;;;;;;5.18;3.30;;;;;;;;;;6208049;23;20175;-90
2022/07/19 02:50:43;;;;;;;5.75;3.00;;;;;;;;;;6207960;23;20210;-91
2022/07/19 02:53:48;;;;;;;5.90;3.17;;;;;;;;;;6207516;23;20586;-91
2022/07/19 02:56:57;;;;;;;8.20;3.28;;;;;;;;;;6208706;23;20248;-90
2022/07/19 03:00:02;;;;;;;8.55;3.30;;;;;;;;;;6208016;23;20174;-90
2022/07/19 03:06:26;;;;;;;5.53;3.25;;;;;;;;;;6209201;23;20167;-90
2022/07/19 03:09:31;;;;;;;6.70;3.25;;;;;;;;;;6209388;23;20171;-89
2022/07/19 03:12:38;;;;;;;3.95;2.88;;;;;;;;;;6206945;23;20179;-88
2022/07/19 03:15:44;;;;;;;7.00;3.53;;;;;;;;;;6208165;23;20191;-89
2022/07/19 03:18:49;;;;;;;8.82;3.65;;;;;;;;;;6210207;23;20194;-90
2022/07/19 03:21:54;;;;;;;7.30;3.55;;;;;;;;;;6210081;23;20162;-89
2022/07/19 03:24:59;;;;;;;9.98;4.13;;;;;;;;;;6209353;23;20167;-88
2022/07/19 03:28:06;;;;;;;6.75;3.35;;;;;;;;;;6207907;23;20167;-90
2022/07/19 03:31:11;;;;;;;5.95;3.28;;;;;;;;;;6210018;23;20167;-88
2022/07/19 03:34:17;;;;;;;7.20;3.70;;;;;;;;;;6211207;23;20239;-89
2022/07/19 03:37:22;;;;;;;5.90;3.47;;;;;;;;;;6210293;23;20163;-89
2022/07/19 03:40:27;;;;;;;5.95;3.10;;;;;;;;;;6209976;23;20186;-90
2022/07/19 03:43:38;;;;;;;5.95;3.55;;;;;;;;;;6207495;23;20162;-88
2022/07/19 03:46:44;;;;;;;5.60;3.30;;;;;;;;;;6209008;23;20174;-88
2022/07/19 03:49:49;;;;;;;5.75;3.35;;;;;;;;;;6208869;23;20175;-89
2022/07/19 03:52:54;;;;;;;8.18;3.55;;;;;;;;;;6209028;23;20214;-90
2022/07/19 03:55:59;;;;;;;5.47;3.33;;;;;;;;;;6209175;23;20166;-89
2022/07/19 03:59:06;;;;;;;5.70;3.17;;;;;;;;;;6227512;23;20242;-90
2022/07/19 04:02:37;;;;;;;6.38;3.30;;;;;;;;;;6207647;23;20163;-90
2022/07/19 04:05:43;;;;;;;5.22;3.38;;;;;;;;;;6208679;23;20163;-90
2022/07/19 04:08:47;;;;;;;8.95;3.00;;;;;;;;;;6208017;23;20167;-90
2022/07/19 04:11:53;;;;;;;8.45;3.33;;;;;;;;;;6207197;23;20241;-89
2022/07/19 04:15:01;;;;;;;4.10;3.10;;;;;;;;;;6209040;23;20626;-90
2022/07/19 04:18:06;;;;;;;4.95;3.20;;;;;;;;;;6206972;23;20238;-90
2022/07/19 04:21:14;;;;;;;5.40;3.10;;;;;;;;;;6209493;23;20175;-89
2022/07/19 04:24:20;;;;;;;6.63;3.20;;;;;;;;;;6209159;23;20179;-89
2022/07/19 04:27:27;;;;;;;8.45;2.90;;;;;;;;;;6209319;23;20167;-89
2022/07/19 04:30:33;;;;;;;7.22;3.30;;;;;;;;;;6209055;23;20178;-89
2022/07/19 04:33:39;;;;;;;6.35;3.42;;;;;;;;;;6207782;23;20259;-88
2022/07/19 04:36:44;;;;;;;4.88;2.78;;;;;;;;;;6207407;23;20199;-89
2022/07/19 04:39:52;;;;;;;6.35;3.10;;;;;;;;;;6207215;23;20175;-89
2022/07/19 04:42:57;;;;;;;12.02;2.90;;;;;;;;;;6209222;23;20174;-89
2022/07/19 04:46:06;;;;;;;5.78;2.70;;;;;;;;;;6211387;23;20218;-91
2022/07/19 04:49:13;;;;;;;14.00;3.15;;;;;;;;;;6208955;23;20163;-88
2022/07/19 04:52:18;;;;;;;6.18;2.88;;;;;;;;;;6227235;23;20204;-90
2022/07/19 04:55:24;;;;;;;8.52;2.53;;;;;;;;;;6209731;23;20266;-88
2022/07/19 04:58:29;;;;;;;5.35;3.15;;;;;;;;;;6210444;23;20254;-88
2022/07/19 05:01:36;;;;;;;6.38;3.20;;;;;;;;;;6210300;23;20163;-89
2022/07/19 05:04:43;;;;;;;5.43;2.90;;;;;;;;;;6209599;23;20179;-89
2022/07/19 05:07:50;;;;;;;7.50;3.35;;;;;;;;;;6212409;23;20171;-88
2022/07/19 05:10:56;;;;;;;8.60;3.25;;;;;;;;;;6212735;23;20187;-90
2022/07/19 05:14:02;;;;;;;4.70;2.75;;;;;;;;;;6211806;23;20171;-90
2022/07/19 05:17:10;;;;;;;5.90;3.00;;;;;;;;;;6214980;23;20176;-89
2022/07/19 05:20:16;;;;;;;10.48;3.15;;;;;;;;;;6212313;23;20179;-89
2022/07/19 05:23:21;;;;;;;6.53;3.22;;;;;;;;;;6210355;23;20491;-89
2022/07/19 05:26:26;;;;;;;5.97;3.03;;;;;;;;;;6212366;23;20170;-89
2022/07/19 05:29:32;;;;;;;6.05;3.20;;;;;;;;;;6210616;23;20626;-89
2022/07/19 05:32:39;;;;;;;12.10;3.40;;;;;;;;;;6212278;23;20179;-89
2022/07/19 05:35:45;;;;;;;7.65;3.25;;;;;;;;;;6214532;23;20213;-88
2022/07/19 05:38:52;;;;;;;6.95;3.00;;;;;;;;;;6212779;23;20239;-87
2022/07/19 05:41:59;;;;;;;6.97;3.25;;;;;;;;;;6212228;23;20176;-88
2022/07/19 05:49:28;;;;;;;11.45;3.42;;;;;;;;;;6232866;23;20214;-89
2022/07/19 05:52:34;;;;;;;7.95;3.55;;;;;;;;;;6210334;23;20495;-88
2022/07/19 05:55:40;;;;;;;5.32;3.38;;;;;;;;;;6211797;23;20214;-90
2022/07/19 05:58:46;;;;;;;6.13;3.53;;;;;;;;;;6212110;23;20195;-86
2022/07/19 06:01:53;;;;;;;6.28;2.88;;;;;;;;;;6214822;23;20179;-88
2022/07/19 06:05:00;;;;;;;9.30;3.38;;;;;;;;;;6214141;23;20168;-87
2022/07/19 06:08:06;;;;;;;5.50;3.30;;;;;;;;;;6218024;23;20187;-89
2022/07/19 06:11:11;;;;;;;8.82;3.47;;;;;;;;;;6223439;23;20155;-88
2022/07/19 06:14:17;;;;;;;5.97;3.28;;;;;;;;;;6214493;23;20175;-88
2022/07/19 06:17:22;;;;;;;10.18;4.28;;;;;;;;;;6213864;23;20175;-89
2022/07/19 06:20:30;;;;;;;8.05;4.20;;;;;;;;;;6212848;23;20179;-89
2022/07/19 20:56:34;;;;;;;6.63;3.03;;;;;;;;;;6208431;23;20187;-89
2022/07/19 21:02:59;;;;;;;9.98;3.72;;;;;;;;;;6206494;23;20191;-91
2022/07/19 21:06:05;;;;;;;6.20;3.67;;;;;;;;;;6206489;23;20180;-89
2022/07/19 21:09:13;;;;;;;12.02;3.33;;;;;;;;;;6203830;23;20271;-89
2022/07/19 21:12:18;;;;;;;9.32;3.78;;;;;;;;;;6204714;23;20168;-90
2022/07/19 21:15:26;;;;;;;7.65;3.38;;;;;;;;;;6206882;23;20270;-89
2022/07/19 21:18:32;;;;;;;8.25;3.85;;;;;;;;;;6206061;23;20179;-90
2022/07/19 21:21:38;;;;;;;10.63;3.80;;;;;;;;;;6204478;23;20192;-88
2022/07/19 21:24:58;;;;;;;11.95;4.40;;;;;;;;;;6206995;23;20172;-89
2022/07/19 21:31:23;;;;;;;6.97;4.00;;;;;;;;;;6207656;23;20168;-89
2022/07/19 21:34:29;;;;;;;8.40;3.80;;;;;;;;;;6204380;23;20179;-89
2022/07/19 21:37:45;;;;;;;8.73;3.58;;;;;;;;;;6205510;23;20171;-89
2022/07/19 21:40:53;;;;;;;7.45;3.90;;;;;;;;;;6204089;23;20191;-89
2022/07/19 21:43:58;;;;;;;7.85;4.07;;;;;;;;;;6204913;23;20168;-90
2022/07/19 21:47:06;;;;;;;6.60;3.58;;;;;;;;;;6204805;23;20217;-88
2022/07/19 21:50:11;;;;;;;10.25;4.05;;;;;;;;;;6202735;23;20172;-89
2022/07/19 21:53:17;;;;;;;12.73;4.00;;;;;;;;;;6203342;23;20184;-89
2022/07/19 21:56:25;;;;;;;8.63;4.03;;;;;;;;;;6205535;23;20237;-88
2022/07/19 21:59:33;;;;;;;12.60;4.03;;;;;;;;;;6205885;23;20195;-89
2022/07/19 22:02:39;;;;;;;8.68;4.20;;;;;;;;;;6208658;23;20184;-90
2022/07/19 22:05:47;;;;;;;8.35;3.92;;;;;;;;;;6205123;23;20252;-91
2022/07/19 22:08:53;;;;;;;7.15;3.90;;;;;;;;;;6206292;23;20172;-88
2022/07/19 22:12:01;;;;;;;7.38;4.00;;;;;;;;;;6206213;23;20221;-88
2022/07/19 22:15:07;;;;;;;9.73;4.18;;;;;;;;;;6207403;23;20196;-90
2022/07/19 22:18:16;;;;;;;7.55;3.95;;;;;;;;;;6206853;23;20192;-88
2022/07/19 22:21:21;;;;;;;7.05;3.90;;;;;;;;;;6207714;23;20180;-87
2022/07/19 22:24:27;;;;;;;7.47;4.15;;;;;;;;;;6207992;23;20195;-89
2022/07/19 22:27:34;;;;;;;9.93;4.50;;;;;;;;;;6207059;23;20179;-88
2022/07/19 23:08:54;;;;;;;8.75;4.40;;;;;;;;;;6198283;22;20220;-89
2022/07/19 23:11:59;;;;;;;7.25;4.15;;;;;;;;;;6206833;23;20188;-88
2022/07/19 23:15:05;;;;;;;8.48;4.70;;;;;;;;;;6205617;23;20176;-90
2022/07/19 23:18:12;;;;;;;18.30;9.55;;;;;;;;;;6202693;23;20168;-87
2022/07/19 23:21:17;;;;;;;11.93;4.72;;;;;;;;;;6201002;23;20219;-90
2022/07/19 23:24:24;;;;;;;7.30;4.35;;;;;;;;;;6201686;23;20232;-89
2022/07/19 23:27:29;;;;;;;17.27;4.95;;;;;;;;;;6202587;23;20242;-90
2022/07/19 23:30:34;;;;;;;7.25;3.97;;;;;;;;;;6195324;23;20167;-91
2022/07/19 23:33:40;;;;;;;7.65;4.20;;;;;;;;;;6194870;23;20242;-91
2022/07/19 23:36:45;;;;;;;7.28;3.72;;;;;;;;;;6195259;23;20221;-90
2022/07/19 23:39:55;;;;;;;9.70;4.10;;;;;;;;;;6194322;23;20195;-89
2022/07/19 23:43:00;;;;;;;9.02;4.90;;;;;;;;;;6193894;23;20163;-86
2022/07/19 23:46:08;;;;;;;8.40;3.92;;;;;;;;;;6195040;23;20179;-89
2022/07/19 23:49:13;;;;;;;11.00;4.60;;;;;;;;;;6197791;23;20176;-90
2022/07/19 23:52:18;;;;;;;10.77;4.70;;;;;;;;;;6196794;23;20172;-89
2022/07/19 23:55:25;;;;;;;15.00;3.95;;;;;;;;;;6196877;23;20171;-91
2022/07/19 23:58:30;;;;;;;10.65;4.35;;;;;;;;;;6198298;23;20171;-88
